createdAt,value
2022-10-18T00:00:55.086Z,9.70
2022-10-18T00:03:22.203Z,9.60
2022-10-18T00:05:49.899Z,9.60
2022-10-18T00:08:18.382Z,12.00
2022-10-18T00:10:45.967Z,12.50
2022-10-18T00:13:12.877Z,12.50
2022-10-18T00:15:39.820Z,12.30
2022-10-18T00:18:06.724Z,9.70
2022-10-18T00:20:33.585Z,9.70
2022-10-18T00:23:00.498Z,9.50
2022-10-18T00:25:27.441Z,9.60
2022-10-18T00:27:54.362Z,11.70
2022-10-18T00:30:21.264Z,11.10
2022-10-18T00:32:48.290Z,12.40
2022-10-18T00:35:15.276Z,12.00
2022-10-18T00:37:42.221Z,9.60
2022-10-18T00:40:10.443Z,11.90
2022-10-18T00:42:38.315Z,9.60
2022-10-18T00:45:25.809Z,9.40
2022-10-18T00:48:04.618Z,9.60
2022-10-18T00:50:34.452Z,9.60
2022-10-18T00:53:06.767Z,12.00
2022-10-18T00:55:34.667Z,12.30
2022-10-18T00:58:02.100Z,10.00
2022-10-18T01:00:29.192Z,9.40
2022-10-18T01:02:58.470Z,11.20
2022-10-18T01:05:26.629Z,9.40
2022-10-18T01:08:25.548Z,9.20
2022-10-18T01:11:24.405Z,9.30
2022-10-18T01:14:00.084Z,9.30
2022-10-18T01:16:43.331Z,9.30
2022-10-18T01:19:36.323Z,9.10
2022-10-18T01:22:30.271Z,9.20
2022-10-18T01:25:07.089Z,9.20
2022-10-18T01:28:07.708Z,10.70
2022-10-18T01:30:51.561Z,9.20
2022-10-18T01:33:30.284Z,9.20
2022-10-18T01:36:13.125Z,9.20
2022-10-18T01:38:41.807Z,9.20
2022-10-18T01:41:14.822Z,12.00
2022-10-18T01:43:43.858Z,11.50
2022-10-18T01:46:13.764Z,12.70
2022-10-18T01:48:40.728Z,8.90
2022-10-18T01:51:07.639Z,9.00
2022-10-18T01:53:35.279Z,11.00
2022-10-18T01:56:23.887Z,8.90
2022-10-18T01:59:44.437Z,12.00
2022-10-18T02:02:45.397Z,9.00
2022-10-18T02:05:34.767Z,8.90
2022-10-18T02:08:23.857Z,8.80
2022-10-18T02:11:17.626Z,8.80
2022-10-18T02:13:56.668Z,11.30
2022-10-18T02:16:29.868Z,8.80
2022-10-18T02:19:02.912Z,8.70
2022-10-18T02:21:30.653Z,8.60
2022-10-18T02:23:59.339Z,11.30
2022-10-18T02:26:26.715Z,11.60
2022-10-18T02:28:53.941Z,8.70
2022-10-18T02:31:49.779Z,11.20
2022-10-18T02:34:53.881Z,8.50
2022-10-18T02:37:21.048Z,11.70
2022-10-18T02:39:50.987Z,8.60
2022-10-18T02:42:17.963Z,10.90
2022-10-18T02:44:44.958Z,8.40
2022-10-18T02:47:12.746Z,8.60
2022-10-18T02:49:39.937Z,8.50
2022-10-18T02:52:06.940Z,10.90
2022-10-18T02:54:33.839Z,10.80
2022-10-18T02:57:00.738Z,8.60
2022-10-18T02:59:27.697Z,11.30
2022-10-18T03:01:54.599Z,11.30
2022-10-18T03:04:21.652Z,8.30
2022-10-18T03:06:48.551Z,8.30
2022-10-18T03:09:15.554Z,8.30
2022-10-18T03:11:42.407Z,8.30
2022-10-18T03:14:09.386Z,11.20
2022-10-18T03:16:36.284Z,8.20
2022-10-18T03:19:03.397Z,8.00
2022-10-18T03:21:30.265Z,8.20
2022-10-18T03:23:58.628Z,8.20
2022-10-18T03:26:26.033Z,8.10
2022-10-18T03:28:53.249Z,8.20
2022-10-18T03:31:20.634Z,11.80
2022-10-18T03:33:47.696Z,8.10
2022-10-18T03:36:14.687Z,8.20
2022-10-18T03:38:42.215Z,8.10
2022-10-18T03:41:09.230Z,8.10
2022-10-18T03:43:36.211Z,11.10
2022-10-18T03:46:03.395Z,8.10
2022-10-18T03:48:30.359Z,11.00
2022-10-18T03:50:57.289Z,8.00
2022-10-18T03:53:24.196Z,11.70
2022-10-18T03:55:52.766Z,10.70
2022-10-18T03:58:20.456Z,8.10
2022-10-18T04:00:51.346Z,8.40
2022-10-18T04:03:19.647Z,10.80
2022-10-18T04:05:47.794Z,7.90
2022-10-18T04:08:15.499Z,8.00
2022-10-18T04:10:42.710Z,9.70
2022-10-18T04:13:10.107Z,10.90
2022-10-18T04:15:37.328Z,7.80
2022-10-18T04:18:04.440Z,7.70
2022-10-18T04:20:31.371Z,7.90
2022-10-18T04:22:58.388Z,9.80
2022-10-18T04:25:25.505Z,9.80
2022-10-18T04:27:52.525Z,7.90
2022-10-18T04:30:19.542Z,7.70
2022-10-18T04:32:46.413Z,7.70
2022-10-18T04:35:13.387Z,7.70
2022-10-18T04:37:40.401Z,7.50
2022-10-18T04:40:08.268Z,7.80
2022-10-18T04:42:35.218Z,7.90
2022-10-18T04:45:02.124Z,7.70
2022-10-18T04:47:29.112Z,9.10
2022-10-18T04:49:56.185Z,7.80
2022-10-18T04:52:23.118Z,7.70
2022-10-18T04:54:50.157Z,7.60
2022-10-18T04:57:17.684Z,7.70
2022-10-18T04:59:52.129Z,10.30
2022-10-18T05:02:21.470Z,5.20
2022-10-18T05:04:48.378Z,10.20
2022-10-18T05:07:16.248Z,7.20
2022-10-18T05:09:43.168Z,7.60
2022-10-18T05:12:10.011Z,7.50
2022-10-18T05:14:36.903Z,7.50
2022-10-18T05:17:03.879Z,7.50
2022-10-18T05:19:30.915Z,8.90
2022-10-18T05:21:57.859Z,10.00
2022-10-18T05:24:27.006Z,7.50
2022-10-18T05:26:54.952Z,10.30
2022-10-18T05:29:21.975Z,7.70
2022-10-18T05:31:50.174Z,7.50
2022-10-18T05:34:17.660Z,7.60
2022-10-18T05:36:44.611Z,7.70
2022-10-18T05:39:11.586Z,7.60
2022-10-18T05:41:38.509Z,10.80
2022-10-18T05:44:07.024Z,7.60
2022-10-18T05:46:35.919Z,7.60
2022-10-18T05:49:03.068Z,7.60
2022-10-18T05:51:30.036Z,7.50
2022-10-18T05:53:56.891Z,7.50
2022-10-18T05:56:24.085Z,7.60
2022-10-18T05:58:52.239Z,7.70
2022-10-18T06:01:19.693Z,7.60
2022-10-18T06:03:47.321Z,7.60
2022-10-18T06:06:15.089Z,7.60
2022-10-18T06:08:43.835Z,7.60
2022-10-18T06:11:17.020Z,7.60
2022-10-18T06:13:49.428Z,7.70
2022-10-18T06:16:20.596Z,7.70
2022-10-18T06:18:49.911Z,7.80
2022-10-18T06:21:17.690Z,7.70
2022-10-18T06:23:56.586Z,7.90
2022-10-18T06:26:24.110Z,8.00
2022-10-18T06:28:51.414Z,8.00
2022-10-18T06:31:18.796Z,7.90
2022-10-18T06:33:46.061Z,10.40
2022-10-18T06:36:16.567Z,8.10
2022-10-18T06:38:45.374Z,8.20
2022-10-18T06:41:12.253Z,8.30
2022-10-18T06:43:39.191Z,8.40
2022-10-18T06:46:08.412Z,8.40
2022-10-18T06:48:40.205Z,8.40
2022-10-18T06:51:08.752Z,10.80
2022-10-18T06:53:43.958Z,8.40
2022-10-18T06:56:20.279Z,8.60
2022-10-18T06:58:47.185Z,8.70
2022-10-18T07:01:16.969Z,8.80
2022-10-18T07:03:46.236Z,12.00
2022-10-18T07:06:16.492Z,11.50
2022-10-18T07:08:43.812Z,8.80
2022-10-18T07:11:18.366Z,8.80
2022-10-18T07:13:45.563Z,8.80
2022-10-18T07:16:18.421Z,8.80
2022-10-18T07:18:49.664Z,8.80
2022-10-18T07:21:22.747Z,12.40
2022-10-18T07:23:51.816Z,9.10
2022-10-18T07:26:29.104Z,9.70
2022-10-18T07:29:09.579Z,11.60
2022-10-18T07:31:38.665Z,9.10
2022-10-18T07:34:06.906Z,9.10
2022-10-18T07:36:34.350Z,9.20
2022-10-18T07:39:01.312Z,10.50
2022-10-18T07:41:29.081Z,9.30
2022-10-18T07:43:56.406Z,9.30
2022-10-18T07:46:23.593Z,10.70
2022-10-18T07:48:51.023Z,9.40
2022-10-18T07:51:20.071Z,12.80
2022-10-18T07:53:47.175Z,9.50
2022-10-18T07:56:20.655Z,7.30
2022-10-18T07:58:53.631Z,9.60
2022-10-18T08:01:25.632Z,9.70
2022-10-18T08:03:53.811Z,9.70
2022-10-18T08:06:22.775Z,9.90
2022-10-18T08:08:49.845Z,9.90
2022-10-18T08:11:20.360Z,10.00
2022-10-18T08:13:47.537Z,10.10
2022-10-18T08:16:21.267Z,13.20
2022-10-18T08:18:48.530Z,10.20
2022-10-18T08:21:17.707Z,12.70
2022-10-18T08:23:44.880Z,11.10
2022-10-18T08:26:16.356Z,12.50
2022-10-18T08:28:53.497Z,10.50
2022-10-18T08:31:25.749Z,10.60
2022-10-18T08:33:55.883Z,10.70
2022-10-18T08:36:22.860Z,10.80
2022-10-18T08:38:49.757Z,13.60
2022-10-18T08:41:37.299Z,11.30
2022-10-18T08:44:21.843Z,11.20
2022-10-18T08:47:00.778Z,11.30
2022-10-18T08:49:45.611Z,11.40
2022-10-18T08:52:35.900Z,11.50
2022-10-18T08:55:45.281Z,11.60
2022-10-18T08:58:23.742Z,11.70
2022-10-18T09:01:07.729Z,12.00
2022-10-18T09:04:07.894Z,12.20
2022-10-18T09:07:21.647Z,14.60
2022-10-18T09:10:08.808Z,12.80
2022-10-18T09:12:56.793Z,13.20
2022-10-18T09:15:29.881Z,13.50
2022-10-18T09:18:09.871Z,14.50
2022-10-18T09:20:59.928Z,16.50
2022-10-18T09:23:51.142Z,14.20
2022-10-18T09:26:24.483Z,14.60
2022-10-18T09:28:58.985Z,14.80
2022-10-18T09:32:04.740Z,16.60
2022-10-18T09:34:46.534Z,15.30
2022-10-18T09:37:18.834Z,15.60
2022-10-18T09:39:48.466Z,15.70
2022-10-18T09:42:32.020Z,16.20
2022-10-18T09:45:26.659Z,15.90
2022-10-18T09:48:27.951Z,15.90
2022-10-18T09:51:04.043Z,15.90
2022-10-18T09:53:42.870Z,15.80
2022-10-18T09:56:25.184Z,15.80
2022-10-18T09:58:52.451Z,15.80
2022-10-18T10:01:24.940Z,17.70
2022-10-18T10:03:53.296Z,16.80
2022-10-18T10:06:38.854Z,16.60
2022-10-18T10:09:15.003Z,15.60
2022-10-18T10:11:48.375Z,16.90
2022-10-18T10:14:23.526Z,16.40
2022-10-18T10:16:57.207Z,15.60
2022-10-18T10:19:38.308Z,16.00
2022-10-18T10:22:13.302Z,15.50
2022-10-18T10:24:45.337Z,15.60
2022-10-18T10:27:43.289Z,16.30
2022-10-18T10:30:30.306Z,16.60
2022-10-18T10:32:57.844Z,15.60
2022-10-18T10:35:53.105Z,15.60
2022-10-18T10:38:27.036Z,16.00
2022-10-18T10:40:55.349Z,16.50
2022-10-18T10:43:38.761Z,15.80
2022-10-18T10:46:20.884Z,15.80
2022-10-18T10:49:27.778Z,16.90
2022-10-18T10:52:02.539Z,16.50
2022-10-18T10:54:48.993Z,16.50
2022-10-18T10:57:27.556Z,16.20
2022-10-18T10:59:57.443Z,16.30
2022-10-18T11:02:35.289Z,18.90
2022-10-18T11:05:24.269Z,16.40
2022-10-18T11:07:55.706Z,16.60
2022-10-18T11:10:27.846Z,17.80
2022-10-18T11:13:18.869Z,16.90
2022-10-18T11:15:52.574Z,17.10
2022-10-18T11:18:28.434Z,17.90
2022-10-18T11:21:11.980Z,18.10
2022-10-18T11:23:41.940Z,17.60
2022-10-18T11:26:11.758Z,17.80
2022-10-18T11:29:19.607Z,18.10
2022-10-18T11:31:46.359Z,18.20
2022-10-18T11:34:37.081Z,18.20
2022-10-18T11:37:29.077Z,18.30
2022-10-18T11:40:15.615Z,18.30
2022-10-18T11:43:09.058Z,18.30
2022-10-18T11:45:57.782Z,18.40
2022-10-18T11:48:27.289Z,18.50
2022-10-18T11:51:29.764Z,18.70
2022-10-18T11:54:55.299Z,18.70
2022-10-18T11:57:51.745Z,18.70
2022-10-18T12:00:29.097Z,19.40
2022-10-18T12:03:29.831Z,18.50
2022-10-18T12:06:02.490Z,18.30
2022-10-18T12:08:44.504Z,18.20
2022-10-18T12:11:47.159Z,18.30
2022-10-18T12:14:51.490Z,17.90
2022-10-18T12:17:48.893Z,18.00
2022-10-18T12:20:31.338Z,18.10
2022-10-18T12:23:12.123Z,18.00
2022-10-18T12:25:44.036Z,17.90
2022-10-18T12:28:32.750Z,18.00
2022-10-18T12:31:22.395Z,17.90
2022-10-18T12:33:55.737Z,18.00
2022-10-18T12:36:22.469Z,18.00
2022-10-18T12:39:00.758Z,18.40
2022-10-18T12:41:34.526Z,18.00
2022-10-18T12:44:24.813Z,18.10
2022-10-18T12:46:59.176Z,18.10
2022-10-18T12:49:32.208Z,18.20
2022-10-18T12:52:04.028Z,19.00
2022-10-18T12:54:35.894Z,18.70
2022-10-18T12:57:23.039Z,18.10
2022-10-18T12:59:50.075Z,18.10
2022-10-18T13:02:24.770Z,18.30
2022-10-18T13:04:51.987Z,19.20
2022-10-18T13:07:35.353Z,18.10
2022-10-18T13:10:12.352Z,18.00
2022-10-18T13:12:54.027Z,19.00
2022-10-18T13:15:54.127Z,18.40
2022-10-18T13:18:43.150Z,17.90
2022-10-18T13:21:23.906Z,17.90
2022-10-18T13:24:30.879Z,17.80
2022-10-18T13:27:35.027Z,17.80
2022-10-18T13:30:16.015Z,17.80
2022-10-18T13:33:02.300Z,17.70
2022-10-18T13:35:55.771Z,17.70
2022-10-18T13:38:42.360Z,17.60
2022-10-18T13:43:56.541Z,17.50
2022-10-18T13:46:33.810Z,17.50
2022-10-18T13:49:39.292Z,17.50
2022-10-18T13:52:27.396Z,18.80
2022-10-18T13:55:31.514Z,17.60
2022-10-18T13:58:32.070Z,17.50
2022-10-18T14:01:20.567Z,17.40
2022-10-18T14:04:16.558Z,17.40
2022-10-18T14:06:46.368Z,17.40
2022-10-18T14:09:26.384Z,17.70
2022-10-18T14:12:23.769Z,17.40
2022-10-18T14:15:14.047Z,17.30
2022-10-18T14:17:52.425Z,17.30
2022-10-18T14:20:48.704Z,17.30
2022-10-18T14:23:22.042Z,17.30
2022-10-18T14:25:49.268Z,17.30
2022-10-18T14:28:31.580Z,18.00
2022-10-18T14:31:19.774Z,17.90
2022-10-18T14:33:57.240Z,17.40
2022-10-18T14:36:30.366Z,17.30
2022-10-18T14:39:03.973Z,17.30
2022-10-18T14:41:38.439Z,17.30
2022-10-18T14:44:14.384Z,17.80
2022-10-18T14:46:49.657Z,17.30
2022-10-18T14:49:17.859Z,17.30
2022-10-18T14:51:48.954Z,17.20
2022-10-18T14:54:30.676Z,17.10
2022-10-18T14:57:02.909Z,17.10
2022-10-18T14:59:34.702Z,17.00
2022-10-18T15:02:18.034Z,17.40
2022-10-18T15:04:47.602Z,17.00
2022-10-18T15:07:17.519Z,17.60
2022-10-18T15:09:45.858Z,17.10
2022-10-18T15:12:15.027Z,17.80
2022-10-18T15:14:42.698Z,17.30
2022-10-18T15:17:19.166Z,17.50
2022-10-18T15:20:00.527Z,16.30
2022-10-18T15:22:33.118Z,16.60
2022-10-18T15:25:14.776Z,16.10
2022-10-18T15:27:51.654Z,16.30
2022-10-18T15:30:30.061Z,15.90
2022-10-18T15:33:00.462Z,15.80
2022-10-18T15:35:36.421Z,16.10
2022-10-18T15:38:27.339Z,16.20
2022-10-18T15:40:55.329Z,16.20
2022-10-18T15:43:28.448Z,16.50
2022-10-18T15:46:05.385Z,15.40
2022-10-18T15:48:39.911Z,16.10
2022-10-18T15:51:47.100Z,16.30
2022-10-18T15:54:30.351Z,15.20
2022-10-18T15:56:57.406Z,16.50
2022-10-18T15:59:28.777Z,16.10
2022-10-18T16:01:55.917Z,15.00
2022-10-18T16:04:31.303Z,14.80
2022-10-18T16:06:59.496Z,14.80
2022-10-18T16:09:28.686Z,15.80
2022-10-18T16:11:57.397Z,14.70
2022-10-18T16:14:26.189Z,16.40
2022-10-18T16:17:02.021Z,14.50
2022-10-18T16:19:30.364Z,14.40
2022-10-18T16:21:59.241Z,17.40
2022-10-18T16:24:28.066Z,14.30
2022-10-18T16:26:55.042Z,15.90
2022-10-18T16:29:28.744Z,14.20
2022-10-18T16:31:58.209Z,15.60
2022-10-18T16:34:28.992Z,16.40
2022-10-18T16:36:55.974Z,15.30
2022-10-18T16:39:23.855Z,16.20
2022-10-18T16:41:51.357Z,15.10
2022-10-18T16:44:19.236Z,15.40
2022-10-18T16:46:50.951Z,13.80
2022-10-18T16:49:24.651Z,13.70
2022-10-18T16:51:53.974Z,13.70
2022-10-18T16:54:21.008Z,15.70
2022-10-18T16:56:49.932Z,13.60
2022-10-18T16:59:29.028Z,16.30
2022-10-18T17:01:56.141Z,16.20
2022-10-18T17:04:23.044Z,15.40
2022-10-18T17:06:50.423Z,14.90
2022-10-18T17:09:20.238Z,13.30
2022-10-18T17:11:47.195Z,13.20
2022-10-18T17:14:15.468Z,13.50
2022-10-18T17:16:44.523Z,14.80
2022-10-18T17:19:14.862Z,14.20
2022-10-18T17:21:41.735Z,15.40
2022-10-18T17:24:08.635Z,12.90
2022-10-18T17:26:35.581Z,14.30
2022-10-18T17:29:08.084Z,14.30
2022-10-18T17:31:35.802Z,12.80
2022-10-18T17:34:03.659Z,14.80
2022-10-18T17:36:32.462Z,12.60
2022-10-18T17:38:59.817Z,13.00
2022-10-18T17:41:26.954Z,12.70
2022-10-18T17:43:53.798Z,13.70
2022-10-18T17:46:21.135Z,12.50
2022-10-18T17:48:48.257Z,12.50
2022-10-18T17:51:17.444Z,13.40
2022-10-18T17:53:44.942Z,13.20
2022-10-18T17:56:13.402Z,13.20
2022-10-18T17:58:43.478Z,13.70
2022-10-18T18:01:11.835Z,14.90
2022-10-18T18:03:39.289Z,12.50
2022-10-18T18:06:31.852Z,14.80
2022-10-18T18:09:01.724Z,12.40
2022-10-18T18:11:29.368Z,12.40
2022-10-18T18:13:56.493Z,12.40
2022-10-18T18:16:27.260Z,15.00
2022-10-18T18:18:58.215Z,14.40
2022-10-18T18:21:26.455Z,12.90
2022-10-18T18:23:53.818Z,12.30
2022-10-18T18:26:22.347Z,14.20
2022-10-18T18:28:49.760Z,12.10
2022-10-18T18:31:23.442Z,12.00
2022-10-18T18:33:56.021Z,14.50
2022-10-18T18:36:25.057Z,12.70
2022-10-18T18:38:56.837Z,12.00
2022-10-18T18:41:27.119Z,12.00
2022-10-18T18:44:00.806Z,11.90
2022-10-18T18:46:32.915Z,13.40
2022-10-18T18:49:00.484Z,11.90
2022-10-18T18:51:28.508Z,11.80
2022-10-18T18:53:55.491Z,11.80
2022-10-18T18:56:26.036Z,11.80
2022-10-18T18:58:54.162Z,12.10
2022-10-18T19:01:27.416Z,11.80
2022-10-18T19:03:55.980Z,11.70
2022-10-18T19:06:33.106Z,12.30
2022-10-18T19:09:05.387Z,11.70
2022-10-18T19:11:37.730Z,13.30
2022-10-18T19:14:06.848Z,11.60
2022-10-18T19:16:34.547Z,12.70
2022-10-18T19:19:14.771Z,11.60
2022-10-18T19:21:49.161Z,11.60
2022-10-18T19:24:16.445Z,11.50
2022-10-18T19:26:47.081Z,11.50
2022-10-18T19:29:37.426Z,11.50
2022-10-18T19:32:07.696Z,11.50
2022-10-18T19:34:35.155Z,11.60
2022-10-18T19:37:02.609Z,14.20
2022-10-18T19:39:32.837Z,11.50
2022-10-18T19:42:03.950Z,11.40
2022-10-18T19:44:34.119Z,11.40
2022-10-18T19:47:01.095Z,12.30
2022-10-18T19:49:28.765Z,11.30
2022-10-18T19:51:56.735Z,10.80
2022-10-18T19:54:24.601Z,11.20
2022-10-18T19:56:51.631Z,11.20
2022-10-18T19:59:19.339Z,11.20
2022-10-18T20:01:46.357Z,11.20
2022-10-18T20:04:14.064Z,11.20
2022-10-18T20:06:42.085Z,12.30
2022-10-18T20:09:13.426Z,11.10
2022-10-18T20:11:43.224Z,11.10
2022-10-18T20:14:10.795Z,11.10
2022-10-18T20:16:37.784Z,11.20
2022-10-18T20:19:07.558Z,11.10
2022-10-18T20:21:35.940Z,11.10
2022-10-18T20:24:05.539Z,11.00
2022-10-18T20:26:33.007Z,11.00
2022-10-18T20:29:00.193Z,11.00
2022-10-18T20:31:35.434Z,13.10
2022-10-18T20:34:06.091Z,11.10
2022-10-18T20:36:34.336Z,11.20
2022-10-18T20:39:02.148Z,11.30
2022-10-18T20:41:32.633Z,11.20
2022-10-18T20:44:07.008Z,11.20
2022-10-18T20:46:37.214Z,11.10
2022-10-18T20:49:06.441Z,12.80
2022-10-18T20:51:34.503Z,13.70
2022-10-18T20:56:34.307Z,13.40
2022-10-18T20:59:01.964Z,10.90
2022-10-18T21:01:34.190Z,10.80
2022-10-18T21:04:04.438Z,10.80
2022-10-18T21:06:43.640Z,10.70
2022-10-18T21:09:17.227Z,10.70
2022-10-18T21:11:49.282Z,11.80
2022-10-18T21:14:19.658Z,12.70
2022-10-18T21:16:47.788Z,12.90
2022-10-18T21:19:26.691Z,10.50
2022-10-18T21:21:56.777Z,10.50
2022-10-18T21:24:25.806Z,10.50
2022-10-18T21:26:53.431Z,10.50
2022-10-18T21:29:22.650Z,10.50
2022-10-18T21:31:55.718Z,10.50
2022-10-18T21:34:22.673Z,10.50
2022-10-18T21:36:49.818Z,10.40
2022-10-18T21:41:54.704Z,13.00
2022-10-18T21:44:21.745Z,10.40
2022-10-18T21:46:48.867Z,10.50
2022-10-18T21:49:16.091Z,11.50
2022-10-18T21:51:43.846Z,10.50
2022-10-18T21:54:15.336Z,12.00
2022-10-18T21:56:42.558Z,10.50
2022-10-18T21:59:14.191Z,10.50
2022-10-18T22:01:42.709Z,10.50
2022-10-18T22:04:20.463Z,10.60
2022-10-18T22:06:47.583Z,12.00
2022-10-18T22:09:14.533Z,10.60
2022-10-18T22:11:49.260Z,10.60
2022-10-18T22:14:16.125Z,11.60
2022-10-18T22:16:43.281Z,12.40
2022-10-18T22:19:10.275Z,13.20
2022-10-18T22:21:37.235Z,10.60
2022-10-18T22:24:07.471Z,10.60
2022-10-18T22:26:38.629Z,10.60
2022-10-18T22:29:13.156Z,10.70
2022-10-18T22:31:44.470Z,10.70
2022-10-18T22:34:16.230Z,10.60
2022-10-18T22:36:43.534Z,10.60
2022-10-18T22:39:13.050Z,10.60
2022-10-18T22:41:40.580Z,11.90
2022-10-18T22:44:12.064Z,10.60
2022-10-18T22:46:40.234Z,11.90
2022-10-18T22:49:07.740Z,10.70
2022-10-18T22:54:07.739Z,10.80
2022-10-18T22:56:34.801Z,13.30
2022-10-18T22:59:01.730Z,10.80
2022-10-18T23:01:28.778Z,13.70
2022-10-18T23:03:58.786Z,10.80
2022-10-18T23:06:29.720Z,10.80
2022-10-18T23:08:58.694Z,10.80
2022-10-18T23:11:27.879Z,10.80
2022-10-18T23:13:54.971Z,10.80
2022-10-18T23:16:22.598Z,13.10
2022-10-18T23:18:55.865Z,10.90
2022-10-18T23:21:25.509Z,10.90
2022-10-18T23:23:53.541Z,10.80
2022-10-18T23:26:26.992Z,10.80
2022-10-18T23:28:54.283Z,10.90
2022-10-18T23:31:31.576Z,10.90
2022-10-18T23:34:01.748Z,10.80
2022-10-18T23:36:29.915Z,12.80
2022-10-18T23:38:57.515Z,10.80
2022-10-18T23:41:25.470Z,10.80
2022-10-18T23:43:52.739Z,10.80
2022-10-18T23:46:20.266Z,10.80
2022-10-18T23:48:48.499Z,10.80
2022-10-18T23:51:16.941Z,10.80
2022-10-18T23:53:43.848Z,10.80
2022-10-18T23:56:14.592Z,10.80
2022-10-18T23:58:42.517Z,10.80
